TimeICT,TemperatureF,Dew PointF,Humidity,Sea Level PressureIn,VisibilityMPH,Wind Direction,Wind SpeedMPH,Gust SpeedMPH,PrecipitationIn,Events,Conditions,WindDirDegrees,DateUTC
12:00 AM,77.0,77.0,100,29.86,2.5,Calm,Calm,-,N/A,,Mostly Cloudy,0,2012-10-31 17:00:00
1:00 AM,78,77,94,29.85,4,Calm,Calm,,,,Overcast,,2012-10-31 18:00:00
6:00 AM,75.2,75.2,100,29.80,3.1,North,3.5,-,N/A,,Mostly Cloudy,360,2012-10-31 23:00:00
7:00 AM,76,74,94,29.83,5,Calm,Calm,,,,Mist,,2012-11-01 00:00:00
7:00 AM,75.2,75.2,100,29.83,3.7,North,4.6,-,N/A,,Mostly Cloudy,10,2012-11-01 00:00:00
8:00 AM,78.8,77.0,94,29.83,5.0,NW,4.6,-,N/A,,Mostly Cloudy,310,2012-11-01 01:00:00
9:00 AM,84.2,78.8,84,29.89,6.2,NNE,3.5,-,N/A,,Mostly Cloudy,30,2012-11-01 02:00:00
10:00 AM,86.0,78.8,79,29.89,6.2,ENE,4.6,-,N/A,,Scattered Clouds,60,2012-11-01 03:00:00
11:00 AM,87.8,78.8,75,29.86,6.2,ENE,6.9,-,N/A,,Scattered Clouds,70,2012-11-01 04:00:00
12:00 PM,84.2,78.8,84,29.86,5.0,ENE,12.7,-,N/A,Thunderstorm,Mostly Cloudy,60,2012-11-01 05:00:00
1:00 PM,82,77,81,29.83,5,North,4.6,,,Thunderstorm,Thunderstorm,0,2012-11-01 06:00:00
1:00 PM,80.6,78.8,94,29.83,5.0,North,8.1,-,N/A,,Overcast,360,2012-11-01 06:00:00
2:00 PM,84.2,78.8,84,29.80,5.0,North,10.4,-,N/A,,Overcast,10,2012-11-01 07:00:00
3:00 PM,86.0,77.0,74,29.77,5.0,North,8.1,-,N/A,,Overcast,10,2012-11-01 08:00:00
4:00 PM,80.6,78.8,94,29.77,3.1,East,9.2,-,N/A,Rain,Rain,90,2012-11-01 09:00:00
5:00 PM,80.6,77.0,89,29.77,5.0,NE,6.9,-,N/A,,Mostly Cloudy,40,2012-11-01 10:00:00
6:00 PM,78.8,77.0,94,29.80,6.2,NNW,5.8,-,N/A,,Mostly Cloudy,330,2012-11-01 11:00:00
7:00 PM,78,75,86,29.81,5,North,3.5,,,,Mist,0,2012-11-01 12:00:00
7:00 PM,77.0,77.0,100,29.80,6.2,North,5.8,-,N/A,,Mostly Cloudy,350,2012-11-01 12:00:00
8:00 PM,77.0,75.2,94,29.83,5.0,NNW,3.5,-,N/A,,Mostly Cloudy,340,2012-11-01 13:00:00
9:00 PM,75.2,75.2,100,29.86,5.0,WNW,4.6,-,N/A,,Scattered Clouds,300,2012-11-01 14:00:00
10:00 PM,75.2,75.2,100,29.89,5.0,NNW,3.5,-,N/A,,Scattered Clouds,340,2012-11-01 15:00:00
11:00 PM,75.2,75.2,100,29.86,4.3,WNW,5.8,-,N/A,,Scattered Clouds,300,2012-11-01 16:00:00